createdAt,value
2023-03-02T00:01:48.328Z,3.03
2023-03-02T00:04:20.774Z,2.77
2023-03-02T00:06:49.537Z,2.81
2023-03-02T00:09:17.594Z,2.69
2023-03-02T00:11:46.894Z,2.76
2023-03-02T00:14:15.701Z,2.72
2023-03-02T00:16:43.532Z,2.60
2023-03-02T00:19:11.366Z,2.73
2023-03-02T00:21:39.035Z,2.58
2023-03-02T00:24:07.583Z,2.52
2023-03-02T00:26:35.573Z,2.63
2023-03-02T00:29:05.579Z,2.56
2023-03-02T00:31:34.671Z,2.64
2023-03-02T00:34:02.516Z,2.58
2023-03-02T00:36:30.327Z,2.36
2023-03-02T00:38:58.224Z,2.51
2023-03-02T00:41:26.075Z,2.39
2023-03-02T00:43:54.065Z,2.40
2023-03-02T00:46:25.337Z,2.44
2023-03-02T00:48:53.502Z,2.48
2023-03-02T00:51:21.429Z,2.32
2023-03-02T00:53:49.217Z,2.37
2023-03-02T00:56:17.131Z,2.45
2023-03-02T00:58:49.305Z,2.37
2023-03-02T01:01:18.676Z,2.40
2023-03-02T01:03:51.229Z,2.36
2023-03-02T01:06:21.789Z,2.40
2023-03-02T01:08:49.921Z,2.45
2023-03-02T01:11:20.392Z,2.48
2023-03-02T01:13:48.736Z,2.55
2023-03-02T01:16:16.835Z,2.54
2023-03-02T01:18:44.638Z,2.40
2023-03-02T01:21:16.273Z,2.34
2023-03-02T01:23:44.057Z,2.56
2023-03-02T01:26:11.886Z,2.46
2023-03-02T01:28:39.797Z,2.30
2023-03-02T01:31:07.675Z,2.20
2023-03-02T01:33:35.595Z,2.24
2023-03-02T01:36:03.435Z,2.30
2023-03-02T01:38:33.194Z,2.22
2023-03-02T01:41:01.274Z,2.04
2023-03-02T01:43:29.485Z,1.95
2023-03-02T01:46:00.524Z,2.04
2023-03-02T01:48:55.455Z,2.53
2023-03-02T01:51:35.381Z,2.25
2023-03-02T01:54:09.138Z,2.35
2023-03-02T01:56:40.465Z,2.23
2023-03-02T01:59:13.309Z,2.33
2023-03-02T02:01:45.350Z,2.16
2023-03-02T02:04:14.151Z,2.02
2023-03-02T02:06:48.879Z,2.27
2023-03-02T02:09:21.102Z,2.18
2023-03-02T02:11:49.199Z,2.25
2023-03-02T02:14:17.247Z,2.10
2023-03-02T02:16:45.314Z,2.15
2023-03-02T02:19:32.072Z,2.24
2023-03-02T02:22:00.013Z,2.10
2023-03-02T02:24:34.799Z,2.15
2023-03-02T02:27:04.109Z,1.93
2023-03-02T02:29:35.663Z,2.03
2023-03-02T02:32:10.241Z,1.88
2023-03-02T02:34:43.594Z,2.21
2023-03-02T02:37:16.222Z,1.84
2023-03-02T02:39:47.984Z,2.05
2023-03-02T02:42:20.994Z,1.97
2023-03-02T02:44:48.970Z,1.81
2023-03-02T02:47:19.952Z,1.87
2023-03-02T02:49:49.784Z,1.83
2023-03-02T02:52:20.760Z,1.97
2023-03-02T02:54:54.844Z,1.89
2023-03-02T02:57:29.952Z,2.21
2023-03-02T03:00:01.299Z,1.87
2023-03-02T03:02:46.806Z,1.86
2023-03-02T03:05:16.350Z,1.70
2023-03-02T03:07:45.828Z,1.62
2023-03-02T03:10:20.086Z,1.82
2023-03-02T03:12:50.298Z,1.77
2023-03-02T03:15:20.574Z,1.74
2023-03-02T03:17:49.720Z,1.68
2023-03-02T03:20:18.451Z,1.78
2023-03-02T03:22:46.476Z,1.68
2023-03-02T03:25:15.358Z,1.72
2023-03-02T03:27:45.747Z,1.62
2023-03-02T03:30:17.556Z,1.72
2023-03-02T03:32:45.876Z,1.53
2023-03-02T03:35:15.815Z,1.55
2023-03-02T03:37:43.649Z,1.49
2023-03-02T03:40:12.886Z,1.41
2023-03-02T03:42:43.977Z,1.33
2023-03-02T03:45:12.394Z,1.56
2023-03-02T03:47:42.124Z,1.47
2023-03-02T03:50:11.991Z,1.48
2023-03-02T03:52:40.808Z,1.43
2023-03-02T03:55:20.245Z,1.25
2023-03-02T03:57:49.971Z,1.49
2023-03-02T04:00:18.697Z,1.68
2023-03-02T04:02:57.551Z,1.51
2023-03-02T04:05:29.161Z,1.35
2023-03-02T04:07:59.202Z,1.40
2023-03-02T04:10:26.970Z,1.34
2023-03-02T04:12:55.220Z,1.48
2023-03-02T04:15:23.665Z,1.51
2023-03-02T04:17:53.296Z,1.39
2023-03-02T04:20:26.560Z,1.23
2023-03-02T04:22:57.611Z,1.20
2023-03-02T04:25:28.315Z,1.42
2023-03-02T04:28:01.710Z,1.44
2023-03-02T04:30:34.827Z,1.09
2023-03-02T04:33:03.156Z,1.32
2023-03-02T04:35:33.655Z,1.29
2023-03-02T04:38:03.090Z,1.32
2023-03-02T04:40:31.050Z,1.38
2023-03-02T04:42:58.794Z,1.49
2023-03-02T04:45:26.652Z,1.43
2023-03-02T04:47:54.497Z,1.30
2023-03-02T04:50:22.585Z,1.34
2023-03-02T04:52:52.017Z,1.37
2023-03-02T04:55:22.179Z,1.23
2023-03-02T04:57:49.950Z,1.43
2023-03-02T05:00:21.089Z,1.61
2023-03-02T05:02:48.979Z,1.55
2023-03-02T05:05:18.405Z,1.25
2023-03-02T05:07:46.414Z,1.47
2023-03-02T05:10:17.634Z,1.43
2023-03-02T05:12:57.795Z,1.37
2023-03-02T05:15:27.837Z,1.42
2023-03-02T05:17:55.980Z,1.51
2023-03-02T05:20:27.650Z,1.59
2023-03-02T05:22:58.965Z,1.61
2023-03-02T05:25:30.052Z,1.44
2023-03-02T05:27:58.058Z,1.40
2023-03-02T05:30:26.476Z,1.34
2023-03-02T05:32:54.884Z,1.27
2023-03-02T05:35:24.273Z,1.23
2023-03-02T05:37:52.735Z,1.19
2023-03-02T05:40:22.045Z,1.17
2023-03-02T05:42:51.672Z,1.01
2023-03-02T05:45:23.260Z,1.10
2023-03-02T05:47:51.753Z,1.47
2023-03-02T05:50:20.015Z,1.19
2023-03-02T05:52:47.925Z,1.11
2023-03-02T05:55:17.745Z,1.18
2023-03-02T05:57:45.770Z,1.11
2023-03-02T06:00:16.213Z,1.24
2023-03-02T06:02:44.697Z,1.08
2023-03-02T06:05:15.635Z,1.23
2023-03-02T06:07:43.549Z,1.40
2023-03-02T06:10:14.016Z,1.26
2023-03-02T06:12:42.009Z,1.03
2023-03-02T06:15:10.550Z,1.06
2023-03-02T06:17:39.784Z,1.42
2023-03-02T06:20:10.858Z,1.22
2023-03-02T06:22:41.291Z,1.04
2023-03-02T06:25:10.750Z,1.07
2023-03-02T06:27:40.311Z,1.13
2023-03-02T06:30:11.936Z,1.07
2023-03-02T06:32:42.033Z,1.10
2023-03-02T06:35:12.249Z,1.15
2023-03-02T06:37:41.799Z,1.11
2023-03-02T06:40:13.894Z,1.06
2023-03-02T06:42:42.959Z,0.98
2023-03-02T06:45:12.594Z,1.02
2023-03-02T06:47:41.827Z,1.42
2023-03-02T06:50:11.236Z,1.30
2023-03-02T06:52:39.012Z,1.31
2023-03-02T06:55:08.190Z,1.30
2023-03-02T06:57:36.148Z,1.41
2023-03-02T07:00:09.710Z,1.49
2023-03-02T07:02:37.870Z,1.55
2023-03-02T07:05:08.564Z,1.66
2023-03-02T07:07:36.666Z,1.45
2023-03-02T07:10:06.229Z,1.60
2023-03-02T07:12:34.840Z,1.53
2023-03-02T07:15:02.715Z,1.59
2023-03-02T07:17:30.865Z,1.81
2023-03-02T07:19:58.710Z,2.27
2023-03-02T07:22:27.830Z,2.71
2023-03-02T07:24:55.649Z,3.08
2023-03-02T07:27:23.481Z,3.55
2023-03-02T07:29:51.646Z,3.93
2023-03-02T07:32:19.606Z,3.93
2023-03-02T07:34:47.364Z,4.44
2023-03-02T07:37:15.194Z,3.86
2023-03-02T07:39:44.494Z,4.13
2023-03-02T07:42:13.400Z,4.52
2023-03-02T07:44:43.515Z,4.97
2023-03-02T07:47:11.870Z,4.36
2023-03-02T07:49:39.846Z,4.89
2023-03-02T07:52:07.626Z,5.02
2023-03-02T07:54:35.577Z,5.09
2023-03-02T07:57:05.020Z,5.55
2023-03-02T07:59:32.890Z,4.90
2023-03-02T08:02:01.008Z,4.68
2023-03-02T08:04:28.769Z,5.18
2023-03-02T08:06:56.601Z,4.87
2023-03-02T08:09:24.602Z,4.95
2023-03-02T08:11:52.992Z,4.87
2023-03-02T08:14:22.902Z,4.96
2023-03-02T08:16:52.225Z,5.12
2023-03-02T08:19:20.499Z,5.75
2023-03-02T08:21:48.214Z,5.13
2023-03-02T08:24:16.792Z,5.34
2023-03-02T08:26:45.201Z,5.86
2023-03-02T08:29:13.632Z,5.40
2023-03-02T08:31:43.468Z,5.31
2023-03-02T08:34:12.241Z,5.24
2023-03-02T08:36:40.630Z,5.21
2023-03-02T08:39:08.678Z,5.39
2023-03-02T08:41:37.187Z,5.31
2023-03-02T08:44:05.359Z,5.22
2023-03-02T08:46:33.610Z,6.04
2023-03-02T08:49:03.841Z,6.06
2023-03-02T08:51:32.411Z,6.65
2023-03-02T08:54:00.982Z,5.93
2023-03-02T08:56:30.953Z,5.90
2023-03-02T08:59:00.731Z,5.76
2023-03-02T09:01:31.877Z,6.01
2023-03-02T09:04:00.972Z,5.41
2023-03-02T09:06:32.341Z,5.80
2023-03-02T09:09:00.266Z,5.61
2023-03-02T09:11:28.753Z,5.55
2023-03-02T09:13:57.252Z,5.13
2023-03-02T09:16:25.828Z,5.63
2023-03-02T09:18:53.743Z,5.29
2023-03-02T09:21:22.084Z,5.66
2023-03-02T09:23:53.885Z,5.78
2023-03-02T09:26:21.806Z,5.91
2023-03-02T09:28:49.814Z,6.18
2023-03-02T09:31:17.563Z,6.16
2023-03-02T09:33:45.896Z,6.18
2023-03-02T09:36:19.508Z,6.17
2023-03-02T09:38:48.009Z,6.39
2023-03-02T09:41:53.287Z,6.28
2023-03-02T09:44:43.776Z,6.47
2023-03-02T09:47:34.578Z,6.81
2023-03-02T09:50:12.518Z,6.89
2023-03-02T09:52:48.212Z,7.11
2023-03-02T09:55:19.502Z,7.34
2023-03-02T09:57:47.923Z,7.37
2023-03-02T10:00:24.758Z,7.00
2023-03-02T10:03:00.564Z,7.10
2023-03-02T10:05:38.634Z,7.20
2023-03-02T10:08:06.905Z,7.27
2023-03-02T10:10:42.165Z,7.37
2023-03-02T10:13:20.818Z,7.04
2023-03-02T10:15:57.070Z,7.00
2023-03-02T10:18:31.262Z,7.09
2023-03-02T10:21:04.534Z,7.35
2023-03-02T10:23:42.308Z,7.26
2023-03-02T10:26:22.050Z,7.41
2023-03-02T10:28:56.830Z,7.79
2023-03-02T10:31:29.262Z,7.96
2023-03-02T10:33:57.741Z,7.90
2023-03-02T10:36:27.747Z,7.61
2023-03-02T10:38:57.198Z,7.65
2023-03-02T10:41:30.178Z,7.85
2023-03-02T10:44:02.552Z,7.59
2023-03-02T10:46:42.094Z,7.88
2023-03-02T10:49:26.672Z,7.78
2023-03-02T10:51:59.943Z,7.72
2023-03-02T10:54:28.757Z,8.00
2023-03-02T10:56:59.715Z,8.09
2023-03-02T10:59:43.157Z,7.88
2023-03-02T11:02:19.118Z,8.19
2023-03-02T11:04:47.238Z,8.27
2023-03-02T11:07:18.776Z,8.10
2023-03-02T11:10:00.730Z,8.20
2023-03-02T11:12:29.741Z,8.23
2023-03-02T11:15:23.551Z,8.30
2023-03-02T11:17:56.513Z,8.27
2023-03-02T11:20:27.091Z,8.43
2023-03-02T11:23:02.795Z,8.03
2023-03-02T11:25:36.638Z,8.42
2023-03-02T11:28:11.042Z,8.60
2023-03-02T11:30:46.472Z,8.68
2023-03-02T11:33:20.679Z,8.73
2023-03-02T11:35:54.263Z,8.61
2023-03-02T11:38:26.733Z,8.39
2023-03-02T11:40:57.890Z,8.81
2023-03-02T11:43:25.798Z,8.89
2023-03-02T11:46:00.245Z,9.10
2023-03-02T11:48:34.500Z,9.34
2023-03-02T11:51:04.936Z,8.90
2023-03-02T11:53:42.637Z,9.18
2023-03-02T11:56:11.380Z,9.05
2023-03-02T11:58:40.499Z,9.54
2023-03-02T12:01:11.117Z,9.40
2023-03-02T12:03:42.622Z,9.34
2023-03-02T12:06:28.521Z,9.11
2023-03-02T12:09:09.948Z,9.31
2023-03-02T12:11:41.221Z,9.55
2023-03-02T12:14:28.209Z,9.51
2023-03-02T12:17:19.480Z,9.61
2023-03-02T12:19:50.850Z,9.29
2023-03-02T12:22:28.869Z,9.58
2023-03-02T12:25:06.378Z,9.54
2023-03-02T12:27:42.022Z,9.63
2023-03-02T12:30:24.680Z,9.80
2023-03-02T12:33:02.993Z,9.64
2023-03-02T12:35:34.968Z,9.97
2023-03-02T12:38:06.398Z,9.88
2023-03-02T12:40:57.894Z,9.87
2023-03-02T12:43:32.101Z,10.10
2023-03-02T12:46:25.097Z,10.19
2023-03-02T12:49:01.208Z,10.09
2023-03-02T12:51:33.351Z,10.23
2023-03-02T12:54:06.559Z,10.07
2023-03-02T12:56:35.009Z,10.22
2023-03-02T12:59:02.960Z,10.59
2023-03-02T13:01:34.316Z,10.20
2023-03-02T13:04:02.404Z,10.33
2023-03-02T13:06:33.868Z,10.39
2023-03-02T13:09:02.180Z,10.44
2023-03-02T13:11:34.384Z,10.34
2023-03-02T13:14:04.136Z,10.40
2023-03-02T13:16:36.794Z,10.55
2023-03-02T13:19:16.716Z,10.45
2023-03-02T13:21:46.129Z,10.34
2023-03-02T13:24:35.979Z,10.60
2023-03-02T13:27:07.614Z,10.44
2023-03-02T13:29:35.494Z,10.50
2023-03-02T13:32:18.408Z,10.46
2023-03-02T13:34:49.504Z,10.42
2023-03-02T13:37:34.870Z,10.42
2023-03-02T13:40:06.707Z,10.55
2023-03-02T13:42:40.359Z,10.62
2023-03-02T13:45:25.054Z,10.57
2023-03-02T13:47:52.998Z,10.52
2023-03-02T13:50:23.701Z,10.43
2023-03-02T13:52:54.279Z,10.47
2023-03-02T13:55:23.370Z,10.68
2023-03-02T13:57:53.896Z,10.53
2023-03-02T14:00:24.167Z,10.62
2023-03-02T14:02:52.761Z,10.14
2023-03-02T14:05:22.782Z,10.29
2023-03-02T14:07:51.692Z,10.42
2023-03-02T14:10:21.922Z,10.41
2023-03-02T14:12:55.295Z,10.17
2023-03-02T14:15:23.134Z,10.35
2023-03-02T14:17:50.998Z,10.17
2023-03-02T14:20:21.125Z,10.29
2023-03-02T14:22:50.515Z,10.28
2023-03-02T14:25:20.536Z,10.12
2023-03-02T14:27:48.442Z,10.11
2023-03-02T14:30:18.491Z,10.33
2023-03-02T14:32:46.894Z,10.18
2023-03-02T14:35:16.773Z,10.26
2023-03-02T14:37:47.861Z,10.44
2023-03-02T14:40:18.276Z,10.19
2023-03-02T14:42:48.504Z,10.39
2023-03-02T14:45:17.292Z,10.22
2023-03-02T14:47:45.371Z,10.18
2023-03-02T14:50:14.514Z,10.10
2023-03-02T14:52:45.684Z,10.07
2023-03-02T14:55:19.305Z,10.03
2023-03-02T14:57:53.276Z,10.12
2023-03-02T15:00:22.482Z,10.21
2023-03-02T15:02:50.371Z,10.15
2023-03-02T15:05:18.928Z,10.10
2023-03-02T15:07:47.405Z,10.50
2023-03-02T15:10:19.369Z,10.14
2023-03-02T15:12:49.171Z,10.22
2023-03-02T15:15:17.431Z,10.02
2023-03-02T15:17:45.218Z,10.00
2023-03-02T15:20:15.573Z,9.84
2023-03-02T15:22:43.657Z,9.92
2023-03-02T15:25:11.610Z,10.02
2023-03-02T15:27:39.464Z,9.97
2023-03-02T15:30:10.265Z,9.95
2023-03-02T15:32:38.109Z,9.84
2023-03-02T15:35:06.761Z,9.88
2023-03-02T15:37:34.996Z,9.77
2023-03-02T15:40:02.700Z,10.11
2023-03-02T15:42:30.560Z,9.99
2023-03-02T15:44:58.352Z,9.82
2023-03-02T15:47:27.704Z,9.78
2023-03-02T15:49:55.506Z,9.78
2023-03-02T15:52:23.369Z,9.70
2023-03-02T15:54:51.368Z,9.73
2023-03-02T15:57:19.678Z,9.84
2023-03-02T15:59:47.960Z,9.56
2023-03-02T16:02:16.575Z,9.57
2023-03-02T16:04:46.491Z,9.66
2023-03-02T16:07:14.987Z,9.58
2023-03-02T16:09:45.246Z,9.71
2023-03-02T16:12:13.248Z,9.66
2023-03-02T16:14:41.314Z,9.51
2023-03-02T16:17:09.052Z,9.29
2023-03-02T16:19:37.800Z,9.51
2023-03-02T16:22:07.042Z,9.46
2023-03-02T16:24:34.747Z,9.54
2023-03-02T16:27:02.575Z,9.54
2023-03-02T16:29:31.114Z,9.42
2023-03-02T16:31:59.335Z,9.52
2023-03-02T16:34:27.210Z,9.14
2023-03-02T16:36:54.977Z,9.17
2023-03-02T16:39:24.486Z,8.91
2023-03-02T16:41:52.725Z,9.11
2023-03-02T16:44:20.835Z,8.94
2023-03-02T16:46:48.619Z,8.99
2023-03-02T16:49:16.544Z,8.80
2023-03-02T16:51:44.661Z,8.90
2023-03-02T16:54:16.760Z,8.67
2023-03-02T16:56:47.315Z,8.65
2023-03-02T16:59:15.666Z,8.89
2023-03-02T17:01:43.618Z,8.54
2023-03-02T17:04:11.477Z,8.38
2023-03-02T17:06:41.692Z,8.40
2023-03-02T17:09:10.256Z,8.32
2023-03-02T17:11:38.877Z,8.34
2023-03-02T17:14:08.136Z,8.43
2023-03-02T17:16:36.045Z,8.39
2023-03-02T17:19:03.779Z,8.31
2023-03-02T17:21:31.591Z,8.19
2023-03-02T17:23:59.485Z,8.33
2023-03-02T17:26:28.954Z,8.10
2023-03-02T17:28:56.775Z,7.87
2023-03-02T17:31:26.758Z,8.00
2023-03-02T17:33:54.542Z,7.98
2023-03-02T17:36:22.258Z,7.96
2023-03-02T17:38:50.223Z,8.14
2023-03-02T17:41:18.157Z,8.07
2023-03-02T17:43:45.983Z,7.73
2023-03-02T17:46:16.194Z,7.85
2023-03-02T17:48:45.461Z,8.11
2023-03-02T17:51:14.923Z,8.00
2023-03-02T17:53:43.145Z,7.76
2023-03-02T17:56:12.084Z,7.56
2023-03-02T17:58:44.959Z,7.90
2023-03-02T18:01:15.554Z,7.92
2023-03-02T18:03:44.942Z,7.94
2023-03-02T18:06:17.884Z,7.46
2023-03-02T18:08:46.011Z,7.40
2023-03-02T18:11:13.911Z,7.82
2023-03-02T18:13:41.687Z,7.53
2023-03-02T18:16:09.756Z,7.45
2023-03-02T18:18:37.794Z,7.08
2023-03-02T18:21:06.093Z,7.19
2023-03-02T18:23:35.565Z,6.87
2023-03-02T18:26:03.390Z,6.66
2023-03-02T18:28:31.134Z,6.78
2023-03-02T18:30:58.957Z,6.97
2023-03-02T18:33:27.475Z,6.84
2023-03-02T18:35:55.291Z,6.66
2023-03-02T18:38:23.076Z,6.70
2023-03-02T18:40:52.314Z,6.70
2023-03-02T18:43:20.059Z,6.52
2023-03-02T18:45:47.907Z,6.62
2023-03-02T18:48:15.754Z,6.65
2023-03-02T18:50:43.932Z,6.64
2023-03-02T18:53:12.961Z,6.60
2023-03-02T18:55:41.325Z,6.44
2023-03-02T18:58:18.275Z,6.35
2023-03-02T19:00:47.027Z,6.29
2023-03-02T19:03:16.055Z,6.15
2023-03-02T19:05:45.164Z,6.09
2023-03-02T19:08:13.227Z,6.06
2023-03-02T19:10:42.428Z,5.88
2023-03-02T19:13:11.999Z,5.84
2023-03-02T19:15:40.363Z,6.00
2023-03-02T19:18:08.723Z,5.86
2023-03-02T19:20:36.859Z,5.80
2023-03-02T19:23:04.722Z,5.57
2023-03-02T19:25:32.483Z,5.55
2023-03-02T19:28:00.203Z,5.77
2023-03-02T19:30:29.664Z,5.48
2023-03-02T19:32:57.856Z,5.45
2023-03-02T19:35:28.200Z,5.54
2023-03-02T19:37:56.477Z,5.33
2023-03-02T19:40:27.757Z,5.44
2023-03-02T19:42:57.518Z,5.33
2023-03-02T19:45:29.206Z,5.16
2023-03-02T19:47:59.658Z,5.01
2023-03-02T19:50:28.225Z,5.35
2023-03-02T19:52:56.654Z,5.27
2023-03-02T19:55:25.462Z,5.18
2023-03-02T19:57:59.843Z,5.21
2023-03-02T20:00:29.809Z,5.03
2023-03-02T20:02:59.747Z,4.90
2023-03-02T20:05:28.351Z,4.99
2023-03-02T20:07:56.865Z,4.98
2023-03-02T20:10:31.352Z,4.62
2023-03-02T20:13:00.362Z,4.63
2023-03-02T20:15:29.878Z,4.41
2023-03-02T20:18:02.406Z,4.47
2023-03-02T20:20:30.913Z,4.68
2023-03-02T20:23:00.090Z,4.58
2023-03-02T20:25:28.731Z,4.51
2023-03-02T20:27:58.123Z,4.23
2023-03-02T20:30:30.155Z,4.30
2023-03-02T20:33:00.671Z,4.21
2023-03-02T20:35:31.677Z,4.40
2023-03-02T20:38:05.313Z,4.47
2023-03-02T20:40:33.320Z,4.29
2023-03-02T20:43:01.240Z,4.09
2023-03-02T20:45:29.712Z,4.02
2023-03-02T20:47:59.133Z,3.83
2023-03-02T20:50:31.144Z,4.17
2023-03-02T20:52:59.541Z,4.12
2023-03-02T20:55:27.759Z,4.07
2023-03-02T20:57:56.549Z,3.91
2023-03-02T21:00:28.347Z,3.79
2023-03-02T21:02:57.095Z,3.99
2023-03-02T21:05:27.976Z,3.85
2023-03-02T21:07:56.139Z,4.08
2023-03-02T21:10:27.580Z,3.55
2023-03-02T21:12:55.780Z,3.75
2023-03-02T21:15:27.242Z,3.76
2023-03-02T21:17:55.764Z,3.69
2023-03-02T21:20:24.676Z,3.53
2023-03-02T21:22:54.020Z,3.39
2023-03-02T21:25:22.148Z,3.48
2023-03-02T21:27:49.918Z,3.36
2023-03-02T21:30:22.398Z,3.39
2023-03-02T21:32:50.633Z,3.23
2023-03-02T21:35:20.956Z,3.35
2023-03-02T21:37:50.474Z,3.17
2023-03-02T21:40:22.134Z,3.20
2023-03-02T21:42:49.952Z,3.07
2023-03-02T21:45:18.630Z,3.02
2023-03-02T21:47:46.954Z,3.35
2023-03-02T21:50:20.413Z,3.13
2023-03-02T21:52:48.310Z,3.07
2023-03-02T21:55:16.194Z,2.97
2023-03-02T21:57:46.032Z,2.90
2023-03-02T22:00:20.994Z,2.97
2023-03-02T22:02:49.113Z,2.80
2023-03-02T22:05:17.134Z,3.01
2023-03-02T22:07:45.533Z,2.78
2023-03-02T22:10:23.378Z,2.79
2023-03-02T22:12:55.919Z,2.93
2023-03-02T22:15:24.821Z,2.72
2023-03-02T22:17:52.995Z,2.72
2023-03-02T22:20:21.359Z,2.75
2023-03-02T22:22:50.711Z,2.52
2023-03-02T22:25:20.007Z,2.30
2023-03-02T22:27:48.083Z,2.41
2023-03-02T22:30:21.505Z,2.36
2023-03-02T22:32:49.913Z,2.49
2023-03-02T22:35:23.420Z,2.28
2023-03-02T22:37:52.770Z,2.63
2023-03-02T22:40:30.220Z,2.41
2023-03-02T22:43:10.968Z,2.55
2023-03-02T22:45:41.814Z,2.80
2023-03-02T22:48:15.740Z,2.52
2023-03-02T22:50:44.996Z,2.52
2023-03-02T22:53:29.180Z,2.45
2023-03-02T22:55:59.479Z,2.41
2023-03-02T22:58:43.793Z,2.37
2023-03-02T23:01:22.166Z,2.56
2023-03-02T23:03:52.683Z,2.44
2023-03-02T23:06:26.926Z,2.43
2023-03-02T23:08:56.491Z,2.28
2023-03-02T23:11:25.432Z,2.35
2023-03-02T23:13:54.754Z,2.26
2023-03-02T23:16:26.190Z,2.25
2023-03-02T23:18:56.012Z,2.02
2023-03-02T23:21:28.220Z,2.20
2023-03-02T23:23:56.806Z,2.18
2023-03-02T23:26:24.753Z,2.48
2023-03-02T23:28:52.680Z,2.37
2023-03-02T23:31:21.219Z,2.22
2023-03-02T23:33:50.408Z,2.12
2023-03-02T23:36:21.091Z,2.45
2023-03-02T23:38:49.178Z,2.71
2023-03-02T23:41:18.338Z,2.28
2023-03-02T23:43:46.218Z,2.20
2023-03-02T23:46:14.538Z,2.28
2023-03-02T23:48:42.721Z,2.08
2023-03-02T23:51:12.016Z,2.17
2023-03-02T23:53:39.956Z,2.17
2023-03-02T23:56:08.110Z,2.20
2023-03-02T23:58:35.959Z,2.35
